sensor_id;sensor_type;location;lat;lon;timestamp;P1;durP1;ratioP1;P2;durP2;ratioP2
56820;SDS011;42702;50.178;20.992;2022-11-20T00:01:32;76.90;;;30.10;;
56820;SDS011;42702;50.178;20.992;2022-11-20T00:04:01;64.80;;;29.70;;
56820;SDS011;42702;50.178;20.992;2022-11-20T00:06:29;68.30;;;28.90;;
56820;SDS011;42702;50.178;20.992;2022-11-20T00:08:58;77.60;;;29.90;;
56820;SDS011;42702;50.178;20.992;2022-11-20T00:11:30;73.30;;;30.90;;
56820;SDS011;42702;50.178;20.992;2022-11-20T00:14:00;73.30;;;29.70;;
56820;SDS011;42702;50.178;20.992;2022-11-20T00:16:30;75.80;;;30.20;;
56820;SDS011;42702;50.178;20.992;2022-11-20T00:19:00;78.50;;;31.80;;
56820;SDS011;42702;50.178;20.992;2022-11-20T00:21:29;76.60;;;31.70;;
56820;SDS011;42702;50.178;20.992;2022-11-20T00:23:58;77.50;;;31.90;;
56820;SDS011;42702;50.178;20.992;2022-11-20T00:26:27;76.30;;;30.50;;
56820;SDS011;42702;50.178;20.992;2022-11-20T00:28:57;72.20;;;31.70;;
56820;SDS011;42702;50.178;20.992;2022-11-20T00:31:29;78.10;;;31.70;;
56820;SDS011;42702;50.178;20.992;2022-11-20T00:33:58;80.80;;;32.90;;
56820;SDS011;42702;50.178;20.992;2022-11-20T00:36:27;72.60;;;32.60;;
56820;SDS011;42702;50.178;20.992;2022-11-20T00:38:57;76.20;;;30.60;;
56820;SDS011;42702;50.178;20.992;2022-11-20T00:41:27;73.20;;;29.60;;
56820;SDS011;42702;50.178;20.992;2022-11-20T00:43:56;76.50;;;32.10;;
56820;SDS011;42702;50.178;20.992;2022-11-20T00:46:26;77.90;;;31.10;;
56820;SDS011;42702;50.178;20.992;2022-11-20T00:48:55;79.30;;;34.50;;
56820;SDS011;42702;50.178;20.992;2022-11-20T00:51:23;88.90;;;33.90;;
56820;SDS011;42702;50.178;20.992;2022-11-20T00:53:57;75.00;;;31.40;;
56820;SDS011;42702;50.178;20.992;2022-11-20T00:56:25;89.50;;;35.70;;
56820;SDS011;42702;50.178;20.992;2022-11-20T00:58:54;86.70;;;37.40;;
56820;SDS011;42702;50.178;20.992;2022-11-20T01:01:23;88.70;;;37.40;;
56820;SDS011;42702;50.178;20.992;2022-11-20T01:03:55;91.40;;;37.70;;
56820;SDS011;42702;50.178;20.992;2022-11-20T01:06:26;85.40;;;36.00;;
56820;SDS011;42702;50.178;20.992;2022-11-20T01:08:57;80.50;;;35.10;;
56820;SDS011;42702;50.178;20.992;2022-11-20T01:11:31;92.10;;;37.90;;
56820;SDS011;42702;50.178;20.992;2022-11-20T01:14:02;76.80;;;34.00;;
56820;SDS011;42702;50.178;20.992;2022-11-20T01:16:33;74.80;;;33.30;;
56820;SDS011;42702;50.178;20.992;2022-11-20T01:19:04;83.80;;;34.60;;
56820;SDS011;42702;50.178;20.992;2022-11-20T01:21:36;74.40;;;32.60;;
56820;SDS011;42702;50.178;20.992;2022-11-20T01:26:37;71.40;;;30.30;;
56820;SDS011;42702;50.178;20.992;2022-11-20T01:29:07;76.50;;;31.00;;
56820;SDS011;42702;50.178;20.992;2022-11-20T01:31:52;77.70;;;30.40;;
56820;SDS011;42702;50.178;20.992;2022-11-20T01:34:20;87.70;;;33.60;;
56820;SDS011;42702;50.178;20.992;2022-11-20T01:36:50;79.60;;;32.80;;
56820;SDS011;42702;50.178;20.992;2022-11-20T01:39:21;80.00;;;33.00;;
56820;SDS011;42702;50.178;20.992;2022-11-20T01:41:52;77.30;;;31.20;;
56820;SDS011;42702;50.178;20.992;2022-11-20T01:44:48;76.90;;;31.50;;
56820;SDS011;42702;50.178;20.992;2022-11-20T01:50:04;84.30;;;32.30;;
56820;SDS011;42702;50.178;20.992;2022-11-20T01:52:42;75.80;;;30.80;;
56820;SDS011;42702;50.178;20.992;2022-11-20T01:55:19;78.40;;;31.50;;
56820;SDS011;42702;50.178;20.992;2022-11-20T01:57:53;90.30;;;35.70;;
56820;SDS011;42702;50.178;20.992;2022-11-20T02:00:23;76.00;;;31.00;;
56820;SDS011;42702;50.178;20.992;2022-11-20T02:02:52;73.70;;;32.40;;
56820;SDS011;42702;50.178;20.992;2022-11-20T02:08:04;77.50;;;30.10;;
56820;SDS011;42702;50.178;20.992;2022-11-20T02:10:34;77.50;;;32.20;;
56820;SDS011;42702;50.178;20.992;2022-11-20T02:13:02;79.90;;;30.70;;
56820;SDS011;42702;50.178;20.992;2022-11-20T02:15:50;69.40;;;31.20;;
56820;SDS011;42702;50.178;20.992;2022-11-20T02:18:19;69.90;;;30.00;;
56820;SDS011;42702;50.178;20.992;2022-11-20T02:20:51;83.80;;;32.10;;
56820;SDS011;42702;50.178;20.992;2022-11-20T02:23:32;81.60;;;31.20;;
56820;SDS011;42702;50.178;20.992;2022-11-20T02:26:29;75.50;;;33.30;;
56820;SDS011;42702;50.178;20.992;2022-11-20T02:29:00;80.50;;;33.70;;
56820;SDS011;42702;50.178;20.992;2022-11-20T02:31:29;80.80;;;34.70;;
56820;SDS011;42702;50.178;20.992;2022-11-20T02:34:01;76.60;;;31.20;;
56820;SDS011;42702;50.178;20.992;2022-11-20T02:36:29;90.00;;;35.80;;
56820;SDS011;42702;50.178;20.992;2022-11-20T02:39:01;89.80;;;35.60;;
56820;SDS011;42702;50.178;20.992;2022-11-20T02:41:34;85.90;;;37.00;;
56820;SDS011;42702;50.178;20.992;2022-11-20T02:44:04;88.50;;;35.80;;
56820;SDS011;42702;50.178;20.992;2022-11-20T02:46:33;74.20;;;29.60;;
56820;SDS011;42702;50.178;20.992;2022-11-20T02:49:02;72.90;;;28.30;;
56820;SDS011;42702;50.178;20.992;2022-11-20T02:51:31;72.90;;;29.90;;
56820;SDS011;42702;50.178;20.992;2022-11-20T02:54:00;66.80;;;27.80;;
56820;SDS011;42702;50.178;20.992;2022-11-20T02:56:28;68.70;;;29.10;;
56820;SDS011;42702;50.178;20.992;2022-11-20T02:58:56;66.20;;;27.40;;
56820;SDS011;42702;50.178;20.992;2022-11-20T03:01:24;69.10;;;28.00;;
56820;SDS011;42702;50.178;20.992;2022-11-20T03:03:52;76.00;;;27.30;;
56820;SDS011;42702;50.178;20.992;2022-11-20T03:06:22;69.10;;;28.00;;
56820;SDS011;42702;50.178;20.992;2022-11-20T03:08:50;71.10;;;30.60;;
56820;SDS011;42702;50.178;20.992;2022-11-20T03:11:18;90.80;;;35.50;;
56820;SDS011;42702;50.178;20.992;2022-11-20T03:13:47;84.30;;;31.90;;
56820;SDS011;42702;50.178;20.992;2022-11-20T03:16:16;69.40;;;29.00;;
56820;SDS011;42702;50.178;20.992;2022-11-20T03:18:49;74.40;;;29.50;;
56820;SDS011;42702;50.178;20.992;2022-11-20T03:21:19;74.10;;;29.80;;
56820;SDS011;42702;50.178;20.992;2022-11-20T03:23:47;68.50;;;28.10;;
56820;SDS011;42702;50.178;20.992;2022-11-20T03:26:16;64.60;;;29.20;;
56820;SDS011;42702;50.178;20.992;2022-11-20T03:28:47;72.30;;;26.40;;
56820;SDS011;42702;50.178;20.992;2022-11-20T03:31:19;63.70;;;27.80;;
56820;SDS011;42702;50.178;20.992;2022-11-20T03:33:49;66.20;;;26.80;;
56820;SDS011;42702;50.178;20.992;2022-11-20T03:36:18;56.20;;;27.20;;
56820;SDS011;42702;50.178;20.992;2022-11-20T03:38:48;68.90;;;27.80;;
56820;SDS011;42702;50.178;20.992;2022-11-20T03:41:18;67.60;;;27.30;;
56820;SDS011;42702;50.178;20.992;2022-11-20T03:43:48;75.60;;;31.10;;
56820;SDS011;42702;50.178;20.992;2022-11-20T03:46:18;74.10;;;30.40;;
56820;SDS011;42702;50.178;20.992;2022-11-20T03:48:46;81.00;;;34.10;;
56820;SDS011;42702;50.178;20.992;2022-11-20T03:53:57;74.80;;;28.40;;
56820;SDS011;42702;50.178;20.992;2022-11-20T03:56:29;75.00;;;32.30;;
56820;SDS011;42702;50.178;20.992;2022-11-20T03:58:58;83.60;;;30.80;;
56820;SDS011;42702;50.178;20.992;2022-11-20T04:01:28;75.60;;;30.20;;
56820;SDS011;42702;50.178;20.992;2022-11-20T04:03:58;67.00;;;28.50;;
56820;SDS011;42702;50.178;20.992;2022-11-20T04:06:32;86.50;;;35.60;;
56820;SDS011;42702;50.178;20.992;2022-11-20T04:09:03;69.20;;;28.40;;
56820;SDS011;42702;50.178;20.992;2022-11-20T04:11:33;76.80;;;30.00;;
56820;SDS011;42702;50.178;20.992;2022-11-20T04:14:04;69.60;;;29.30;;
56820;SDS011;42702;50.178;20.992;2022-11-20T04:16:35;66.00;;;27.20;;
56820;SDS011;42702;50.178;20.992;2022-11-20T04:19:04;68.00;;;29.10;;
56820;SDS011;42702;50.178;20.992;2022-11-20T04:21:34;79.70;;;30.50;;
56820;SDS011;42702;50.178;20.992;2022-11-20T04:24:02;92.80;;;35.70;;
56820;SDS011;42702;50.178;20.992;2022-11-20T04:26:31;85.20;;;35.50;;
56820;SDS011;42702;50.178;20.992;2022-11-20T04:29:00;78.40;;;31.70;;
56820;SDS011;42702;50.178;20.992;2022-11-20T04:31:33;68.70;;;31.40;;
56820;SDS011;42702;50.178;20.992;2022-11-20T04:34:03;84.10;;;31.70;;
56820;SDS011;42702;50.178;20.992;2022-11-20T04:36:33;84.70;;;34.20;;
56820;SDS011;42702;50.178;20.992;2022-11-20T04:39:03;70.00;;;29.10;;
56820;SDS011;42702;50.178;20.992;2022-11-20T04:41:34;77.70;;;30.30;;
56820;SDS011;42702;50.178;20.992;2022-11-20T04:44:04;69.80;;;29.40;;
56820;SDS011;42702;50.178;20.992;2022-11-20T04:46:34;66.70;;;28.40;;
56820;SDS011;42702;50.178;20.992;2022-11-20T04:49:04;62.20;;;28.00;;
56820;SDS011;42702;50.178;20.992;2022-11-20T04:51:33;64.00;;;26.40;;
56820;SDS011;42702;50.178;20.992;2022-11-20T04:54:02;78.70;;;30.00;;
56820;SDS011;42702;50.178;20.992;2022-11-20T04:56:30;69.90;;;28.70;;
56820;SDS011;42702;50.178;20.992;2022-11-20T04:59:01;84.60;;;30.10;;
56820;SDS011;42702;50.178;20.992;2022-11-20T05:01:30;77.70;;;30.00;;
56820;SDS011;42702;50.178;20.992;2022-11-20T05:04:00;79.70;;;31.20;;
56820;SDS011;42702;50.178;20.992;2022-11-20T05:06:28;65.10;;;28.60;;
56820;SDS011;42702;50.178;20.992;2022-11-20T05:08:56;78.80;;;31.10;;
56820;SDS011;42702;50.178;20.992;2022-11-20T05:11:25;76.70;;;30.90;;
56820;SDS011;42702;50.178;20.992;2022-11-20T05:13:53;75.60;;;29.10;;
56820;SDS011;42702;50.178;20.992;2022-11-20T05:16:22;68.00;;;27.00;;
56820;SDS011;42702;50.178;20.992;2022-11-20T05:18:52;70.50;;;30.20;;
56820;SDS011;42702;50.178;20.992;2022-11-20T05:21:22;74.10;;;30.30;;
56820;SDS011;42702;50.178;20.992;2022-11-20T05:23:50;94.70;;;36.00;;
56820;SDS011;42702;50.178;20.992;2022-11-20T05:26:19;88.20;;;33.40;;
56820;SDS011;42702;50.178;20.992;2022-11-20T05:28:51;87.70;;;35.20;;
56820;SDS011;42702;50.178;20.992;2022-11-20T05:31:23;121.90;;;44.90;;
56820;SDS011;42702;50.178;20.992;2022-11-20T05:33:55;114.00;;;41.20;;
56820;SDS011;42702;50.178;20.992;2022-11-20T05:36:25;89.10;;;36.90;;
56820;SDS011;42702;50.178;20.992;2022-11-20T05:38:53;93.70;;;37.00;;
56820;SDS011;42702;50.178;20.992;2022-11-20T05:41:28;95.50;;;37.10;;
56820;SDS011;42702;50.178;20.992;2022-11-20T05:43:57;83.10;;;35.20;;
56820;SDS011;42702;50.178;20.992;2022-11-20T05:46:26;66.70;;;30.50;;
56820;SDS011;42702;50.178;20.992;2022-11-20T05:48:57;83.90;;;30.80;;
56820;SDS011;42702;50.178;20.992;2022-11-20T05:51:25;79.10;;;30.50;;
56820;SDS011;42702;50.178;20.992;2022-11-20T05:53:57;75.00;;;29.80;;
56820;SDS011;42702;50.178;20.992;2022-11-20T05:56:26;73.60;;;29.90;;
56820;SDS011;42702;50.178;20.992;2022-11-20T05:58:55;74.20;;;30.10;;
56820;SDS011;42702;50.178;20.992;2022-11-20T06:01:24;80.10;;;32.10;;
56820;SDS011;42702;50.178;20.992;2022-11-20T06:03:53;69.00;;;30.50;;
56820;SDS011;42702;50.178;20.992;2022-11-20T06:06:22;76.70;;;29.20;;
56820;SDS011;42702;50.178;20.992;2022-11-20T06:08:50;76.10;;;30.30;;
56820;SDS011;42702;50.178;20.992;2022-11-20T06:11:18;76.50;;;31.70;;
56820;SDS011;42702;50.178;20.992;2022-11-20T06:13:47;71.20;;;30.80;;
56820;SDS011;42702;50.178;20.992;2022-11-20T06:16:16;82.80;;;32.20;;
56820;SDS011;42702;50.178;20.992;2022-11-20T06:18:46;89.80;;;35.60;;
56820;SDS011;42702;50.178;20.992;2022-11-20T06:21:16;86.40;;;34.90;;
56820;SDS011;42702;50.178;20.992;2022-11-20T06:23:46;92.20;;;37.70;;
56820;SDS011;42702;50.178;20.992;2022-11-20T06:26:19;101.10;;;38.10;;
56820;SDS011;42702;50.178;20.992;2022-11-20T06:28:50;118.40;;;45.30;;
56820;SDS011;42702;50.178;20.992;2022-11-20T06:31:20;164.40;;;62.40;;
56820;SDS011;42702;50.178;20.992;2022-11-20T06:33:49;102.10;;;41.10;;
56820;SDS011;42702;50.178;20.992;2022-11-20T06:36:19;96.10;;;40.80;;
56820;SDS011;42702;50.178;20.992;2022-11-20T06:38:50;108.30;;;43.80;;
56820;SDS011;42702;50.178;20.992;2022-11-20T06:41:20;106.50;;;40.50;;
56820;SDS011;42702;50.178;20.992;2022-11-20T06:43:49;97.00;;;43.40;;
56820;SDS011;42702;50.178;20.992;2022-11-20T06:46:18;102.20;;;44.90;;
56820;SDS011;42702;50.178;20.992;2022-11-20T06:48:48;100.50;;;39.20;;
56820;SDS011;42702;50.178;20.992;2022-11-20T06:51:17;88.80;;;38.20;;
56820;SDS011;42702;50.178;20.992;2022-11-20T06:53:45;100.80;;;41.20;;
56820;SDS011;42702;50.178;20.992;2022-11-20T06:56:13;92.40;;;40.10;;
56820;SDS011;42702;50.178;20.992;2022-11-20T06:58:42;90.70;;;35.70;;
56820;SDS011;42702;50.178;20.992;2022-11-20T07:01:11;90.50;;;37.90;;
56820;SDS011;42702;50.178;20.992;2022-11-20T07:03:41;127.70;;;49.50;;
56820;SDS011;42702;50.178;20.992;2022-11-20T07:06:10;136.10;;;50.90;;
56820;SDS011;42702;50.178;20.992;2022-11-20T07:08:39;154.80;;;56.50;;
56820;SDS011;42702;50.178;20.992;2022-11-20T07:11:07;175.40;;;66.70;;
56820;SDS011;42702;50.178;20.992;2022-11-20T07:13:36;165.70;;;61.90;;
56820;SDS011;42702;50.178;20.992;2022-11-20T07:16:05;238.70;;;87.10;;
56820;SDS011;42702;50.178;20.992;2022-11-20T07:18:36;322.80;;;131.90;;
56820;SDS011;42702;50.178;20.992;2022-11-20T07:21:05;123.30;;;48.90;;
56820;SDS011;42702;50.178;20.992;2022-11-20T07:23:35;123.60;;;47.00;;
56820;SDS011;42702;50.178;20.992;2022-11-20T07:26:08;106.90;;;45.40;;
56820;SDS011;42702;50.178;20.992;2022-11-20T07:28:37;129.10;;;55.20;;
56820;SDS011;42702;50.178;20.992;2022-11-20T07:31:06;96.50;;;41.60;;
56820;SDS011;42702;50.178;20.992;2022-11-20T07:33:35;140.50;;;56.30;;
56820;SDS011;42702;50.178;20.992;2022-11-20T07:36:03;141.00;;;54.20;;
56820;SDS011;42702;50.178;20.992;2022-11-20T07:38:32;181.70;;;66.00;;
56820;SDS011;42702;50.178;20.992;2022-11-20T07:41:00;154.90;;;58.50;;
56820;SDS011;42702;50.178;20.992;2022-11-20T07:43:29;132.90;;;53.50;;
56820;SDS011;42702;50.178;20.992;2022-11-20T07:45:59;128.10;;;47.80;;
56820;SDS011;42702;50.178;20.992;2022-11-20T07:48:27;103.30;;;40.90;;
56820;SDS011;42702;50.178;20.992;2022-11-20T07:50:56;95.70;;;40.80;;
56820;SDS011;42702;50.178;20.992;2022-11-20T07:53:24;95.60;;;40.30;;
56820;SDS011;42702;50.178;20.992;2022-11-20T07:55:52;114.10;;;46.10;;
56820;SDS011;42702;50.178;20.992;2022-11-20T07:58:21;131.90;;;54.50;;
56820;SDS011;42702;50.178;20.992;2022-11-20T08:00:49;198.80;;;83.40;;
56820;SDS011;42702;50.178;20.992;2022-11-20T08:03:18;118.70;;;47.20;;
56820;SDS011;42702;50.178;20.992;2022-11-20T08:05:51;105.30;;;44.40;;
56820;SDS011;42702;50.178;20.992;2022-11-20T08:08:20;104.80;;;44.30;;
56820;SDS011;42702;50.178;20.992;2022-11-20T08:10:49;98.60;;;40.70;;
56820;SDS011;42702;50.178;20.992;2022-11-20T08:13:17;122.70;;;43.80;;
56820;SDS011;42702;50.178;20.992;2022-11-20T08:16:04;99.70;;;40.00;;
56820;SDS011;42702;50.178;20.992;2022-11-20T08:18:32;104.50;;;36.90;;
56820;SDS011;42702;50.178;20.992;2022-11-20T08:21:04;86.30;;;36.30;;
56820;SDS011;42702;50.178;20.992;2022-11-20T08:23:32;91.30;;;35.50;;
56820;SDS011;42702;50.178;20.992;2022-11-20T08:26:01;76.80;;;33.10;;
56820;SDS011;42702;50.178;20.992;2022-11-20T08:28:29;72.50;;;33.40;;
56820;SDS011;42702;50.178;20.992;2022-11-20T08:30:57;86.30;;;34.50;;
56820;SDS011;42702;50.178;20.992;2022-11-20T08:33:27;78.50;;;32.70;;
56820;SDS011;42702;50.178;20.992;2022-11-20T08:36:02;77.80;;;33.40;;
56820;SDS011;42702;50.178;20.992;2022-11-20T08:38:31;79.00;;;32.10;;
56820;SDS011;42702;50.178;20.992;2022-11-20T08:41:00;79.00;;;34.20;;
56820;SDS011;42702;50.178;20.992;2022-11-20T08:43:48;92.10;;;35.90;;
56820;SDS011;42702;50.178;20.992;2022-11-20T08:46:28;80.80;;;34.80;;
56820;SDS011;42702;50.178;20.992;2022-11-20T08:49:01;81.00;;;36.20;;
56820;SDS011;42702;50.178;20.992;2022-11-20T08:51:29;86.30;;;36.20;;
56820;SDS011;42702;50.178;20.992;2022-11-20T08:53:58;89.50;;;36.10;;
56820;SDS011;42702;50.178;20.992;2022-11-20T08:56:26;78.30;;;34.50;;
56820;SDS011;42702;50.178;20.992;2022-11-20T08:58:54;78.00;;;35.70;;
56820;SDS011;42702;50.178;20.992;2022-11-20T09:01:42;89.10;;;38.50;;
56820;SDS011;42702;50.178;20.992;2022-11-20T09:04:10;78.80;;;35.10;;
56820;SDS011;42702;50.178;20.992;2022-11-20T09:06:39;79.10;;;34.20;;
56820;SDS011;42702;50.178;20.992;2022-11-20T09:09:07;77.90;;;33.40;;
56820;SDS011;42702;50.178;20.992;2022-11-20T09:11:36;74.60;;;35.70;;
56820;SDS011;42702;50.178;20.992;2022-11-20T09:14:04;79.50;;;36.40;;
56820;SDS011;42702;50.178;20.992;2022-11-20T09:16:32;86.90;;;35.60;;
56820;SDS011;42702;50.178;20.992;2022-11-20T09:19:00;83.30;;;37.40;;
56820;SDS011;42702;50.178;20.992;2022-11-20T09:21:48;83.70;;;37.60;;
56820;SDS011;42702;50.178;20.992;2022-11-20T09:24:17;75.20;;;34.60;;
56820;SDS011;42702;50.178;20.992;2022-11-20T09:26:46;92.30;;;38.20;;
56820;SDS011;42702;50.178;20.992;2022-11-20T09:29:14;104.60;;;63.30;;
56820;SDS011;42702;50.178;20.992;2022-11-20T09:31:42;110.90;;;59.80;;
56820;SDS011;42702;50.178;20.992;2022-11-20T09:34:10;98.50;;;48.30;;
56820;SDS011;42702;50.178;20.992;2022-11-20T09:36:38;91.20;;;42.20;;
56820;SDS011;42702;50.178;20.992;2022-11-20T09:39:06;84.50;;;40.90;;
56820;SDS011;42702;50.178;20.992;2022-11-20T09:47:11;98.20;;;44.50;;
56820;SDS011;42702;50.178;20.992;2022-11-20T09:55:28;89.60;;;39.20;;
56820;SDS011;42702;50.178;20.992;2022-11-20T09:57:58;97.40;;;44.50;;
56820;SDS011;42702;50.178;20.992;2022-11-20T10:00:27;100.10;;;42.80;;
56820;SDS011;42702;50.178;20.992;2022-11-20T10:03:05;96.50;;;39.40;;
56820;SDS011;42702;50.178;20.992;2022-11-20T10:05:41;97.20;;;42.80;;
56820;SDS011;42702;50.178;20.992;2022-11-20T10:08:28;94.30;;;43.10;;
56820;SDS011;42702;50.178;20.992;2022-11-20T10:22:07;99.00;;;40.60;;
56820;SDS011;42702;50.178;20.992;2022-11-20T10:30:15;125.50;;;50.00;;
56820;SDS011;42702;50.178;20.992;2022-11-20T10:32:46;274.80;;;97.60;;
56820;SDS011;42702;50.178;20.992;2022-11-20T10:35:23;186.10;;;67.20;;
56820;SDS011;42702;50.178;20.992;2022-11-20T10:37:57;103.70;;;42.60;;
56820;SDS011;42702;50.178;20.992;2022-11-20T10:45:49;87.70;;;36.60;;
56820;SDS011;42702;50.178;20.992;2022-11-20T10:48:43;73.50;;;31.70;;
56820;SDS011;42702;50.178;20.992;2022-11-20T10:56:27;87.50;;;36.40;;
56820;SDS011;42702;50.178;20.992;2022-11-20T10:59:08;82.90;;;38.50;;
56820;SDS011;42702;50.178;20.992;2022-11-20T11:01:52;91.40;;;37.80;;
56820;SDS011;42702;50.178;20.992;2022-11-20T11:09:49;102.30;;;41.10;;
56820;SDS011;42702;50.178;20.992;2022-11-20T11:12:20;102.20;;;46.20;;
56820;SDS011;42702;50.178;20.992;2022-11-20T11:14:52;114.00;;;44.80;;
56820;SDS011;42702;50.178;20.992;2022-11-20T11:17:32;102.70;;;45.10;;
56820;SDS011;42702;50.178;20.992;2022-11-20T11:22:54;97.20;;;45.30;;
56820;SDS011;42702;50.178;20.992;2022-11-20T11:25:35;96.30;;;42.30;;
56820;SDS011;42702;50.178;20.992;2022-11-20T11:28:17;102.50;;;43.90;;
56820;SDS011;42702;50.178;20.992;2022-11-20T11:30:52;102.00;;;43.40;;
56820;SDS011;42702;50.178;20.992;2022-11-20T11:33:25;96.80;;;45.80;;
56820;SDS011;42702;50.178;20.992;2022-11-20T11:35:56;91.00;;;39.70;;
56820;SDS011;42702;50.178;20.992;2022-11-20T11:38:32;96.00;;;43.30;;
56820;SDS011;42702;50.178;20.992;2022-11-20T11:41:04;99.60;;;40.70;;
56820;SDS011;42702;50.178;20.992;2022-11-20T11:43:35;90.80;;;42.80;;
56820;SDS011;42702;50.178;20.992;2022-11-20T11:46:25;99.60;;;41.90;;
56820;SDS011;42702;50.178;20.992;2022-11-20T11:48:57;94.10;;;43.10;;
56820;SDS011;42702;50.178;20.992;2022-11-20T11:54:45;107.30;;;42.60;;
56820;SDS011;42702;50.178;20.992;2022-11-20T12:05:21;103.70;;;44.20;;
56820;SDS011;42702;50.178;20.992;2022-11-20T12:10:22;83.70;;;37.40;;
56820;SDS011;42702;50.178;20.992;2022-11-20T12:16:01;99.60;;;42.40;;
56820;SDS011;42702;50.178;20.992;2022-11-20T12:18:30;105.50;;;44.40;;
56820;SDS011;42702;50.178;20.992;2022-11-20T12:21:12;114.70;;;47.50;;
56820;SDS011;42702;50.178;20.992;2022-11-20T12:43:11;105.20;;;45.80;;
56820;SDS011;42702;50.178;20.992;2022-11-20T12:48:41;105.70;;;43.50;;
56820;SDS011;42702;50.178;20.992;2022-11-20T12:56:50;80.20;;;34.90;;
56820;SDS011;42702;50.178;20.992;2022-11-20T12:59:39;96.20;;;41.40;;
56820;SDS011;42702;50.178;20.992;2022-11-20T13:02:27;91.50;;;41.10;;
56820;SDS011;42702;50.178;20.992;2022-11-20T13:05:04;84.90;;;36.80;;
56820;SDS011;42702;50.178;20.992;2022-11-20T13:07:57;106.00;;;44.70;;
56820;SDS011;42702;50.178;20.992;2022-11-20T13:14:01;108.00;;;47.10;;
56820;SDS011;42702;50.178;20.992;2022-11-20T13:19:14;111.60;;;48.00;;
56820;SDS011;42702;50.178;20.992;2022-11-20T13:21:45;105.70;;;46.50;;
56820;SDS011;42702;50.178;20.992;2022-11-20T13:29:35;107.10;;;46.40;;
56820;SDS011;42702;50.178;20.992;2022-11-20T13:34:54;113.10;;;47.10;;
56820;SDS011;42702;50.178;20.992;2022-11-20T13:42:54;105.90;;;44.20;;
56820;SDS011;42702;50.178;20.992;2022-11-20T13:45:41;100.30;;;45.30;;
56820;SDS011;42702;50.178;20.992;2022-11-20T13:48:19;121.20;;;49.30;;
56820;SDS011;42702;50.178;20.992;2022-11-20T13:58:55;115.00;;;47.50;;
56820;SDS011;42702;50.178;20.992;2022-11-20T14:01:32;110.70;;;46.60;;
56820;SDS011;42702;50.178;20.992;2022-11-20T14:04:06;101.90;;;44.90;;
56820;SDS011;42702;50.178;20.992;2022-11-20T14:06:43;96.10;;;44.40;;
56820;SDS011;42702;50.178;20.992;2022-11-20T14:09:30;102.40;;;43.50;;
56820;SDS011;42702;50.178;20.992;2022-11-20T14:12:01;116.90;;;46.60;;
56820;SDS011;42702;50.178;20.992;2022-11-20T14:14:32;116.10;;;49.50;;
56820;SDS011;42702;50.178;20.992;2022-11-20T14:17:08;115.30;;;46.10;;
56820;SDS011;42702;50.178;20.992;2022-11-20T14:19:47;141.70;;;53.70;;
56820;SDS011;42702;50.178;20.992;2022-11-20T14:22:25;131.90;;;56.30;;
56820;SDS011;42702;50.178;20.992;2022-11-20T14:27:34;121.50;;;52.60;;
56820;SDS011;42702;50.178;20.992;2022-11-20T14:30:06;128.20;;;53.30;;
56820;SDS011;42702;50.178;20.992;2022-11-20T14:32:45;111.60;;;48.10;;
56820;SDS011;42702;50.178;20.992;2022-11-20T14:35:23;122.30;;;50.50;;
56820;SDS011;42702;50.178;20.992;2022-11-20T14:37:52;113.60;;;48.60;;
56820;SDS011;42702;50.178;20.992;2022-11-20T14:42:52;116.90;;;48.50;;
56820;SDS011;42702;50.178;20.992;2022-11-20T14:45:21;121.60;;;52.60;;
56820;SDS011;42702;50.178;20.992;2022-11-20T14:47:54;111.10;;;48.40;;
56820;SDS011;42702;50.178;20.992;2022-11-20T14:52:55;139.40;;;53.20;;
56820;SDS011;42702;50.178;20.992;2022-11-20T14:55:31;125.30;;;52.40;;
56820;SDS011;42702;50.178;20.992;2022-11-20T14:58:02;140.80;;;55.50;;
56820;SDS011;42702;50.178;20.992;2022-11-20T15:00:57;126.40;;;48.00;;
56820;SDS011;42702;50.178;20.992;2022-11-20T15:03:37;126.30;;;53.00;;
56820;SDS011;42702;50.178;20.992;2022-11-20T15:06:10;149.70;;;59.80;;
56820;SDS011;42702;50.178;20.992;2022-11-20T15:11:19;138.00;;;55.50;;
56820;SDS011;42702;50.178;20.992;2022-11-20T15:13:53;148.30;;;62.30;;
56820;SDS011;42702;50.178;20.992;2022-11-20T15:16:22;184.90;;;71.40;;
56820;SDS011;42702;50.178;20.992;2022-11-20T15:18:52;184.30;;;71.50;;
56820;SDS011;42702;50.178;20.992;2022-11-20T15:21:20;203.70;;;77.90;;
56820;SDS011;42702;50.178;20.992;2022-11-20T15:23:49;194.10;;;77.70;;
56820;SDS011;42702;50.178;20.992;2022-11-20T15:26:22;201.10;;;82.00;;
56820;SDS011;42702;50.178;20.992;2022-11-20T15:28:53;229.10;;;92.30;;
56820;SDS011;42702;50.178;20.992;2022-11-20T15:31:22;249.60;;;101.10;;
56820;SDS011;42702;50.178;20.992;2022-11-20T15:33:51;299.80;;;123.60;;
56820;SDS011;42702;50.178;20.992;2022-11-20T15:36:19;255.30;;;107.70;;
56820;SDS011;42702;50.178;20.992;2022-11-20T15:38:48;227.70;;;101.00;;
56820;SDS011;42702;50.178;20.992;2022-11-20T15:41:16;223.30;;;98.00;;
56820;SDS011;42702;50.178;20.992;2022-11-20T15:43:44;265.50;;;103.10;;
56820;SDS011;42702;50.178;20.992;2022-11-20T15:46:16;221.70;;;90.40;;
56820;SDS011;42702;50.178;20.992;2022-11-20T15:48:51;200.30;;;76.40;;
56820;SDS011;42702;50.178;20.992;2022-11-20T15:51:33;196.30;;;76.60;;
56820;SDS011;42702;50.178;20.992;2022-11-20T15:54:09;187.00;;;78.00;;
56820;SDS011;42702;50.178;20.992;2022-11-20T15:56:40;202.10;;;84.70;;
56820;SDS011;42702;50.178;20.992;2022-11-20T15:59:08;161.80;;;61.40;;
56820;SDS011;42702;50.178;20.992;2022-11-20T16:01:36;167.60;;;67.70;;
56820;SDS011;42702;50.178;20.992;2022-11-20T16:04:07;168.70;;;67.50;;
56820;SDS011;42702;50.178;20.992;2022-11-20T16:06:40;160.80;;;65.20;;
56820;SDS011;42702;50.178;20.992;2022-11-20T16:09:08;165.40;;;64.60;;
56820;SDS011;42702;50.178;20.992;2022-11-20T16:11:37;155.40;;;65.90;;
56820;SDS011;42702;50.178;20.992;2022-11-20T16:14:05;145.60;;;57.30;;
56820;SDS011;42702;50.178;20.992;2022-11-20T16:16:52;146.00;;;57.80;;
56820;SDS011;42702;50.178;20.992;2022-11-20T16:19:21;137.60;;;56.30;;
56820;SDS011;42702;50.178;20.992;2022-11-20T16:21:49;132.00;;;57.30;;
56820;SDS011;42702;50.178;20.992;2022-11-20T16:24:17;136.20;;;56.60;;
56820;SDS011;42702;50.178;20.992;2022-11-20T16:26:45;137.80;;;55.90;;
56820;SDS011;42702;50.178;20.992;2022-11-20T16:29:13;125.70;;;52.60;;
56820;SDS011;42702;50.178;20.992;2022-11-20T16:31:42;131.60;;;52.60;;
56820;SDS011;42702;50.178;20.992;2022-11-20T16:34:10;133.30;;;54.80;;
56820;SDS011;42702;50.178;20.992;2022-11-20T16:36:40;130.90;;;56.80;;
56820;SDS011;42702;50.178;20.992;2022-11-20T16:39:09;139.40;;;59.10;;
56820;SDS011;42702;50.178;20.992;2022-11-20T16:41:38;146.50;;;62.50;;
56820;SDS011;42702;50.178;20.992;2022-11-20T16:44:08;225.20;;;86.80;;
56820;SDS011;42702;50.178;20.992;2022-11-20T16:46:37;257.30;;;103.10;;
56820;SDS011;42702;50.178;20.992;2022-11-20T16:49:13;266.10;;;103.70;;